Time;durP1;ratioP1;P1;durP2;ratioP2;P2;SDS_P1;SDS_P2;PMS_P1;PMS_P2;Temp;Humidity;BMP_temperature;BMP_pressure;BME280_temperature;BME280_humidity;BME280_pressure;Samples;Min_cycle;Max_cycle;Signal;HPM_P1;HPM_P2
2021/01/05 00:01:04;;;;;;;20.17;14.02;;;;;;;1.35;100.00;100810.56;10263176;29;20483;-75
2021/01/05 00:06:06;;;;;;;19.38;14.50;;;;;;;1.32;100.00;100808.88;10244715;28;20425;-75
2021/01/05 00:11:07;;;;;;;17.52;13.27;;;;;;;1.37;100.00;100825.28;10248382;28;20404;-75
2021/01/05 00:16:08;;;;;;;19.80;14.13;;;;;;;1.36;100.00;100825.28;10231160;29;20055;-75
2021/01/05 00:21:09;;;;;;;19.45;15.02;;;;;;;1.40;100.00;100821.81;10201462;29;20432;-75
2021/01/05 00:26:10;;;;;;;20.13;15.48;;;;;;;1.29;100.00;100811.47;10240597;29;20391;-75
2021/01/05 00:31:11;;;;;;;19.10;14.15;;;;;;;1.29;100.00;100811.47;10256402;28;20054;-75
2021/01/05 00:36:12;;;;;;;16.98;13.25;;;;;;;1.36;100.00;100828.75;10257275;29;20063;-75
2021/01/05 00:41:13;;;;;;;18.80;13.68;;;;;;;1.44;100.00;100837.38;10254562;29;20051;-75
2021/01/05 00:46:16;;;;;;;18.30;14.63;;;;;;;1.38;100.00;100832.22;10254996;29;20523;-75
2021/01/05 00:51:17;;;;;;;18.40;14.25;;;;;;;1.33;100.00;100822.72;10243440;29;20050;-75
2021/01/05 00:56:19;;;;;;;17.05;12.80;;;;;;;1.30;100.00;100817.53;10238155;29;20058;-75
2021/01/05 01:01:21;;;;;;;16.80;13.93;;;;;;;1.30;100.00;100820.13;10227658;29;20055;-75
2021/01/05 01:06:24;;;;;;;23.08;13.07;;;;;;;1.25;100.00;100804.59;10235424;28;20047;-75
2021/01/05 01:11:26;;;;;;;17.73;13.15;;;;;;;1.31;100.00;100821.84;10220365;29;20050;-74
2021/01/05 01:16:28;;;;;;;17.58;14.63;;;;;;;1.24;100.00;100815.81;10243417;29;20054;-75
2021/01/05 01:21:29;;;;;;;16.88;12.85;;;;;;;1.34;100.00;100832.25;10238708;28;20051;-74
2021/01/05 01:26:30;;;;;;;20.15;15.63;;;;;;;1.27;100.00;100822.72;10277917;28;20047;-75
2021/01/05 01:31:32;;;;;;;18.33;15.27;;;;;;;1.30;100.00;100828.78;10295256;28;20102;-75
2021/01/05 01:36:33;;;;;;;22.50;17.20;;;;;;;1.37;100.00;100832.22;10237683;29;20489;-75
2021/01/05 01:41:35;;;;;;;21.02;16.05;;;;;;;1.34;100.00;100825.28;10213578;29;20063;-74
2021/01/05 01:46:37;;;;;;;22.63;17.38;;;;;;;1.34;100.00;100833.06;10233849;29;20065;-75
2021/01/05 01:51:42;;;;;;;22.95;16.98;;;;;;;1.33;100.00;100833.97;10236458;29;20091;-75
2021/01/05 01:57:40;;;;;;;21.20;16.52;;;;;;;1.35;100.00;100837.41;10236725;29;20377;-74
2021/01/05 02:02:57;;;;;;;23.63;17.00;;;;;;;1.33;100.00;100833.97;10215896;28;20412;-75
2021/01/05 02:08:13;;;;;;;22.48;17.05;;;;;;;1.29;100.00;100818.38;10235767;29;20047;-75
2021/01/05 02:13:46;;;;;;;22.65;15.82;;;;;;;1.28;100.00;100824.44;10253453;29;20043;-75
2021/01/05 02:19:34;;;;;;;22.40;15.65;;;;;;;1.35;100.00;100837.41;10235799;29;20151;-75
2021/01/05 02:24:47;;;;;;;21.77;14.48;;;;;;;1.33;100.00;100833.09;10237581;29;20051;-75
2021/01/05 02:29:58;;;;;;;23.05;15.10;;;;;;;1.39;100.00;100833.06;10277182;28;20130;-75
2021/01/05 02:35:30;;;;;;;24.23;15.90;;;;;;;1.33;100.00;100818.41;10213220;28;20087;-75
2021/01/05 02:41:09;;;;;;;22.20;15.10;;;;;;;1.37;100.00;100825.28;10242112;29;20142;-75
2021/01/05 02:46:43;;;;;;;23.23;15.68;;;;;;;1.40;100.00;100827.88;10253451;29;20419;-75
2021/01/05 02:52:40;;;;;;;23.50;15.77;;;;;;;1.45;100.00;100827.84;10253960;29;20047;-75
2021/01/05 02:58:25;;;;;;;22.50;14.63;;;;;;;1.42;100.00;100827.88;10252599;29;20051;-75
2021/01/05 03:03:47;;;;;;;19.48;14.82;;;;;;;1.33;100.00;100815.78;10230850;28;20583;-75
2021/01/05 03:09:13;;;;;;;20.25;14.88;;;;;;;1.40;100.00;100827.88;10243860;29;20476;-75
2021/01/05 03:14:46;;;;;;;21.33;14.87;;;;;;;1.38;100.00;100826.16;10253007;29;20488;-74
2021/01/05 03:20:27;;;;;;;20.73;14.43;;;;;;;1.36;100.00;100817.50;10251868;29;20047;-75
2021/01/05 03:25:49;;;;;;;20.83;15.15;;;;;;;1.29;100.00;100814.06;10252094;29;20400;-75
2021/01/05 03:31:22;;;;;;;21.23;15.05;;;;;;;1.36;100.00;100826.16;10252946;28;20051;-75
2021/01/05 03:36:42;;;;;;;20.55;14.73;;;;;;;1.25;100.00;100814.97;10249687;29;20051;-75
2021/01/05 03:42:01;;;;;;;21.15;15.70;;;;;;;1.23;100.00;100803.72;10251537;29;20099;-75
2021/01/05 03:47:21;;;;;;;21.38;16.63;;;;;;;1.23;100.00;100815.81;10256660;28;20051;-75
2021/01/05 03:52:41;;;;;;;22.90;15.85;;;;;;;1.33;100.00;100827.91;10258238;29;20051;-74
2021/01/05 03:58:01;;;;;;;22.10;16.08;;;;;;;1.28;100.00;100827.91;10257674;29;20129;-75
2021/01/05 04:03:21;;;;;;;21.60;15.70;;;;;;;1.30;100.00;100823.59;10260759;28;20047;-75
2021/01/05 04:08:22;;;;;;;22.55;15.45;;;;;;;1.35;100.00;100820.97;10239408;29;20057;-75
2021/01/05 04:13:23;;;;;;;21.50;15.90;;;;;;;1.32;100.00;100824.44;10257367;29;20472;-75
2021/01/05 04:18:25;;;;;;;21.50;15.07;;;;;;;1.34;100.00;100834.84;10240259;29;20047;-75
2021/01/05 04:23:26;;;;;;;23.40;16.90;;;;;;;1.36;100.00;100822.69;10256190;29;20109;-75
2021/01/05 04:28:27;;;;;;;22.77;16.55;;;;;;;1.41;100.00;100831.34;10256706;28;20047;-75
2021/01/05 04:33:28;;;;;;;20.63;15.13;;;;;;;1.41;100.00;100837.41;10239767;28;20066;-75
2021/01/05 04:38:29;;;;;;;21.75;16.08;;;;;;;1.35;100.00;100826.16;10258526;28;20086;-74
2021/01/05 04:43:36;;;;;;;22.55;16.98;;;;;;;1.40;100.00;100840.88;10257977;28;20055;-74
2021/01/05 04:48:57;;;;;;;21.08;15.80;;;;;;;1.39;100.00;100841.72;10230482;29;20128;-75
2021/01/05 04:54:21;;;;;;;24.10;16.77;;;;;;;1.32;100.00;100827.03;10238787;29;20051;-74
2021/01/05 04:59:27;;;;;;;23.13;16.17;;;;;;;1.41;100.00;100847.78;10226348;28;20103;-75
2021/01/05 05:04:36;;;;;;;22.17;17.00;;;;;;;1.34;100.00;100832.25;10254373;28;20039;-75
2021/01/05 05:10:17;;;;;;;27.02;18.27;;;;;;;1.40;100.00;100842.59;10252252;28;20043;-75
2021/01/05 05:15:37;;;;;;;24.98;18.02;;;;;;;1.41;100.00;100847.78;10184483;28;20454;-75
2021/01/05 05:20:53;;;;;;;25.25;18.17;;;;;;;1.44;100.00;100852.94;10288028;28;20043;-75
2021/01/05 05:26:04;;;;;;;23.17;15.70;;;;;;;1.39;100.00;100849.50;10256937;29;20102;-74
2021/01/05 05:31:10;;;;;;;23.48;16.42;;;;;;;1.43;100.00;100851.22;10256783;28;20051;-75
2021/01/05 05:36:28;;;;;;;26.17;17.70;;;;;;;1.46;100.00;100855.53;10252314;29;20055;-75
2021/01/05 05:41:32;;;;;;;23.95;17.60;;;;;;;1.38;100.00;100846.91;10236882;29;20043;-75
2021/01/05 05:46:41;;;;;;;22.35;16.45;;;;;;;1.44;100.00;100865.06;10254750;29;20039;-75
2021/01/05 05:51:49;;;;;;;25.73;16.85;;;;;;;1.41;100.00;100858.16;10262140;28;20475;-75
2021/01/05 05:57:15;;;;;;;22.77;15.68;;;;;;;1.48;100.00;100866.78;10295665;28;20391;-74
2021/01/05 06:02:18;;;;;;;;;;;;;;;1.51;100.00;100874.56;10264428;28;20044;-73
2021/01/05 06:07:19;;;;;;;22.30;15.85;;;;;;;1.60;100.00;100874.53;10238233;28;19926;-73
2021/01/05 06:12:21;;;;;;;23.13;16.40;;;;;;;1.37;100.00;100843.44;10251259;28;20047;-74
2021/01/05 06:17:22;;;;;;;22.85;16.33;;;;;;;1.46;100.00;100859.00;10253504;29;20047;-73
2021/01/05 06:22:23;;;;;;;21.67;14.63;;;;;;;1.58;100.00;100875.41;10254191;29;20039;-73
2021/01/05 06:27:24;;;;;;;20.92;14.65;;;;;;;1.51;100.00;100864.16;10256869;28;20066;-72
2021/01/05 06:32:25;;;;;;;25.38;17.38;;;;;;;1.51;100.00;100874.56;10293148;28;20055;-74
2021/01/05 06:37:27;;;;;;;26.52;18.88;;;;;;;1.53;100.00;100873.69;10293840;28;20042;-74
2021/01/05 06:42:28;;;;;;;26.00;17.42;;;;;;;1.56;100.00;100877.16;10268106;28;20054;-75
2021/01/05 06:47:29;;;;;;;24.55;17.92;;;;;;;1.48;100.00;100878.03;10235784;29;20060;-74
2021/01/05 06:52:30;;;;;;;22.23;16.70;;;;;;;1.48;100.00;100880.63;10242229;28;20364;-73
2021/01/05 06:57:31;;;;;;;23.20;15.95;;;;;;;1.51;100.00;100878.00;10253089;29;20055;-74
2021/01/05 07:02:32;;;;;;;23.40;16.13;;;;;;;1.57;100.00;100884.94;10254270;29;20047;-74
2021/01/05 07:07:33;;;;;;;21.42;15.70;;;;;;;1.51;100.00;100880.59;10254127;29;20050;-74
2021/01/05 07:12:35;;;;;;;23.85;16.05;;;;;;;1.46;100.00;100874.56;10252020;28;20051;-74
2021/01/05 07:17:36;;;;;;;23.65;16.30;;;;;;;1.47;100.00;100878.03;10242986;28;20074;-75
2021/01/05 07:22:37;;;;;;;22.42;15.55;;;;;;;1.48;100.00;100879.78;10259632;28;20051;-75
2021/01/05 07:27:39;;;;;;;22.38;16.67;;;;;;;1.54;100.00;100887.53;10267903;28;20046;-72
2021/01/05 07:32:40;;;;;;;21.50;15.90;;;;;;;1.49;100.00;100889.28;10251906;28;20234;-73
2021/01/05 07:37:43;;;;;;;26.80;17.10;;;;;;;1.56;100.00;100890.13;10260710;29;20055;-72
2021/01/05 07:42:44;;;;;;;24.27;16.95;;;;;;;1.57;100.00;100897.91;10260127;29;20039;-73
2021/01/05 07:47:45;;;;;;;36.17;23.77;;;;;;;1.53;100.00;100899.66;10260400;29;20099;-73
2021/01/05 07:52:47;;;;;;;27.77;18.58;;;;;;;1.53;100.00;100893.59;10276096;28;20046;-72
2021/01/05 07:57:52;;;;;;;59.05;45.20;;;;;;;1.55;100.00;100894.47;10263484;28;20106;-72
2021/01/05 08:02:55;;;;;;;27.13;17.23;;;;;;;1.54;100.00;100890.13;10259615;29;20418;-73
2021/01/05 08:07:57;;;;;;;24.98;17.08;;;;;;;1.61;100.00;100901.34;10259773;29;20058;-71
2021/01/05 08:13:00;;;;;;;24.90;17.48;;;;;;;1.63;100.00;100923.84;10258410;29;20043;-73
2021/01/05 08:18:03;;;;;;;43.35;38.10;;;;;;;1.64;100.00;100923.00;10258786;28;20383;-74
2021/01/05 08:23:04;;;;;;;28.42;20.70;;;;;;;1.75;100.00;100938.56;10259026;29;20043;-72
2021/01/05 08:28:05;;;;;;;28.13;18.55;;;;;;;1.77;100.00;100937.66;10265383;28;20497;-72
2021/01/05 08:33:08;;;;;;;33.88;25.88;;;;;;;1.73;100.00;100941.16;10285337;28;20126;-73
2021/01/05 08:38:10;;;;;;;28.88;20.52;;;;;;;1.78;100.00;100933.31;10264284;28;20056;-73
2021/01/05 08:43:11;;;;;;;22.75;16.60;;;;;;;1.79;100.00;100935.06;10240599;28;20047;-72
2021/01/05 08:48:12;;;;;;;41.40;26.35;;;;;;;1.77;100.00;100927.25;10230938;28;20052;-73
2021/01/05 08:53:14;;;;;;;27.50;17.42;;;;;;;1.75;100.00;100930.75;10232756;28;20106;-73
2021/01/05 08:58:15;;;;;;;26.13;17.13;;;;;;;1.77;100.00;100939.38;10296943;28;20403;-74
2021/01/05 09:03:16;;;;;;;30.95;19.42;;;;;;;1.82;100.00;100932.47;10275929;28;20035;-75
2021/01/05 09:08:19;;;;;;;28.10;19.60;;;;;;;1.82;100.00;100927.28;10260156;28;20125;-74
2021/01/05 09:13:21;;;;;;;30.50;19.65;;;;;;;1.88;100.00;100938.50;10258829;29;20050;-74
2021/01/05 09:18:23;;;;;;;25.95;17.73;;;;;;;1.87;100.00;100928.09;10254336;29;20395;-74
2021/01/05 09:23:24;;;;;;;32.33;22.48;;;;;;;1.90;100.00;100941.09;10255723;29;20047;-75
2021/01/05 09:28:27;;;;;;;32.38;24.35;;;;;;;1.92;100.00;100953.19;10254663;28;20110;-75
2021/01/05 09:33:28;;;;;;;34.03;19.63;;;;;;;1.90;100.00;100943.69;10255004;28;20074;-74
2021/01/05 09:38:29;;;;;;;54.53;37.47;;;;;;;1.94;100.00;100953.19;10236504;29;20094;-74
2021/01/05 09:43:30;;;;;;;32.28;19.45;;;;;;;1.96;100.00;100948.00;10273819;28;20050;-76
2021/01/05 09:48:31;;;;;;;29.85;20.25;;;;;;;1.97;100.00;100947.13;10293739;28;20034;-75
2021/01/05 09:53:32;;;;;;;28.10;18.38;;;;;;;1.99;100.00;100945.38;10293182;28;20448;-76
2021/01/05 09:58:33;;;;;;;28.00;18.83;;;;;;;2.00;100.00;100954.91;10223570;28;20087;-74
2021/01/05 10:03:34;;;;;;;31.40;21.55;;;;;;;2.04;100.00;100964.41;10241022;29;20051;-76
2021/01/05 10:08:36;;;;;;;29.95;19.73;;;;;;;2.01;100.00;100952.28;10252799;28;20117;-74
2021/01/05 10:13:37;;;;;;;27.67;17.80;;;;;;;2.09;100.00;100947.91;10254293;28;20066;-75
2021/01/05 10:18:38;;;;;;;26.95;17.75;;;;;;;2.09;100.00;100949.69;10253035;29;20395;-73
2021/01/05 10:23:40;;;;;;;30.13;18.10;;;;;;;2.13;100.00;100954.84;10234960;29;20043;-72
2021/01/05 10:28:41;;;;;;;28.23;18.30;;;;;;;2.10;100.00;100947.06;10267461;28;20069;-73
2021/01/05 10:33:42;;;;;;;27.77;17.85;;;;;;;2.18;100.00;100941.81;10256286;28;20082;-73
2021/01/05 10:38:47;;;;;;;29.67;17.83;;;;;;;2.25;100.00;100953.94;10234933;29;20045;-73
2021/01/05 10:43:48;;;;;;;26.98;19.02;;;;;;;2.35;100.00;100957.34;10274537;28;20046;-73
2021/01/05 10:48:49;;;;;;;32.08;24.02;;;;;;;2.25;100.00;100959.13;10292644;28;20383;-73
2021/01/05 10:53:51;;;;;;;28.90;20.40;;;;;;;2.26;100.00;100951.31;10274541;28;20058;-73
2021/01/05 10:58:52;;;;;;;129.15;98.22;;;;;;;2.28;100.00;100954.78;10277563;28;20043;-73
2021/01/05 11:03:54;;;;;;;35.35;24.17;;;;;;;2.26;100.00;100937.44;10235541;29;20039;-73
2021/01/05 11:08:57;;;;;;;31.33;17.98;;;;;;;2.29;100.00;100940.91;10251042;29;20043;-73
2021/01/05 11:13:58;;;;;;;27.98;17.77;;;;;;;2.37;100.00;100938.25;10251221;29;20051;-73
2021/01/05 11:19:00;;;;;;;29.23;19.75;;;;;;;2.48;100.00;100946.00;10251759;29;20122;-73
2021/01/05 11:24:01;;;;;;;30.35;21.27;;;;;;;2.42;100.00;100931.31;10233933;29;20055;-73
2021/01/05 11:29:03;;;;;;;39.22;28.73;;;;;;;2.39;100.00;100914.88;10268825;28;20043;-74
2021/01/05 11:34:04;;;;;;;32.83;19.98;;;;;;;2.35;100.00;100911.41;10274288;28;20070;-73
2021/01/05 11:39:06;;;;;;;24.95;16.77;;;;;;;2.31;100.00;100903.66;10253433;28;20043;-73
2021/01/05 11:44:07;;;;;;;30.33;19.23;;;;;;;2.35;100.00;100905.34;10275820;28;20049;-73
2021/01/05 11:49:08;;;;;;;29.23;18.20;;;;;;;2.26;100.00;100888.94;10254935;28;20050;-74
2021/01/05 11:54:10;;;;;;;28.67;18.08;;;;;;;2.29;100.00;100901.91;10236039;28;20043;-75
2021/01/05 11:59:12;;;;;;;129.20;115.75;;;;;;;2.21;100.00;100887.25;10232276;29;20058;-75
2021/01/05 12:04:13;;;;;;;84.65;77.88;;;;;;;2.24;100.00;100888.09;10249725;28;20051;-75
2021/01/05 12:09:15;;;;;;;28.02;17.40;;;;;;;2.25;100.00;100889.81;10257171;29;20044;-74
2021/01/05 12:14:16;;;;;;;30.77;18.45;;;;;;;2.31;100.00;100880.25;10255396;29;20067;-74
2021/01/05 12:19:21;;;;;;;114.13;81.57;;;;;;;2.27;100.00;100880.25;10238189;28;20047;-74
2021/01/05 12:24:26;;;;;;;69.05;52.20;;;;;;;2.28;100.00;100879.38;10257359;29;20053;-75
2021/01/05 12:29:30;;;;;;;30.02;23.05;;;;;;;2.33;100.00;100874.19;10219496;28;20094;-73
2021/01/05 12:34:34;;;;;;;25.92;17.75;;;;;;;2.33;100.00;100881.13;10261885;28;20054;-73
2021/01/05 12:39:36;;;;;;;51.53;39.20;;;;;;;2.32;100.00;100874.19;10257200;28;20039;-75
2021/01/05 12:44:37;;;;;;;36.13;23.85;;;;;;;2.34;100.00;100870.72;10255727;28;20043;-76
2021/01/05 12:49:39;;;;;;;44.22;38.38;;;;;;;2.30;100.00;100866.38;10237901;29;20051;-75
2021/01/05 12:54:42;;;;;;;30.02;21.25;;;;;;;2.27;100.00;100867.25;10254782;28;20094;-74
2021/01/05 12:59:46;;;;;;;29.30;19.27;;;;;;;2.33;100.00;100866.38;10258464;28;20054;-76
2021/01/05 13:04:48;;;;;;;32.95;20.80;;;;;;;2.15;100.00;100846.56;10254364;29;20134;-76
2021/01/05 13:09:57;;;;;;;39.60;27.10;;;;;;;2.21;100.00;100861.25;10237333;29;20420;-74
2021/01/05 13:14:59;;;;;;;37.95;24.92;;;;;;;2.12;100.00;100858.69;10241124;28;20468;-72
2021/01/05 13:20:00;;;;;;;34.13;21.73;;;;;;;2.16;100.00;100860.41;10254687;28;20399;-73
2021/01/05 13:25:03;;;;;;;33.35;22.80;;;;;;;2.15;100.00;100864.75;10236484;29;20058;-75
2021/01/05 13:30:07;;;;;;;37.25;24.77;;;;;;;2.13;100.00;100870.81;10254206;28;20540;-74
2021/01/05 13:35:09;;;;;;;35.60;25.60;;;;;;;2.11;100.00;100863.03;10256282;28;20055;-74
2021/01/05 13:40:10;;;;;;;33.85;21.25;;;;;;;2.10;100.00;100871.69;10253785;29;20039;-74
2021/01/05 13:45:12;;;;;;;33.80;21.98;;;;;;;2.18;100.00;100871.66;10253481;29;20043;-74
2021/01/05 13:50:13;;;;;;;36.45;24.00;;;;;;;2.04;100.00;100866.53;10236167;29;20131;-74
2021/01/05 13:55:19;;;;;;;32.90;22.80;;;;;;;2.09;100.00;100869.97;10248174;29;20075;-73
2021/01/05 14:00:20;;;;;;;27.15;18.65;;;;;;;2.09;100.00;100874.31;10229220;28;20051;-72
2021/01/05 14:05:21;;;;;;;34.88;23.15;;;;;;;2.01;100.00;100882.13;10252210;29;20555;-73
2021/01/05 14:10:23;;;;;;;33.72;23.38;;;;;;;2.03;100.00;100884.72;10252016;29;20098;-75
2021/01/05 14:15:26;;;;;;;30.65;22.90;;;;;;;1.96;100.00;100870.03;10250674;28;20047;-73
2021/01/05 14:20:27;;;;;;;36.47;22.27;;;;;;;2.03;100.00;100884.72;10253017;29;20426;-73
2021/01/05 14:25:28;;;;;;;36.45;23.48;;;;;;;1.99;100.00;100899.50;10252897;29;20047;-73
2021/01/05 14:30:29;;;;;;;36.83;25.13;;;;;;;1.94;100.00;100901.22;10233400;29;20043;-73
2021/01/05 14:35:31;;;;;;;38.47;22.95;;;;;;;1.92;100.00;100897.78;10243090;28;20146;-74
2021/01/05 14:40:32;;;;;;;35.20;22.45;;;;;;;1.43;100.00;100881.50;10252366;29;20047;-73
2021/01/05 14:45:33;;;;;;;35.03;22.98;;;;;;;1.11;100.00;100879.84;10250511;29;20058;-73
2021/01/05 14:50:34;;;;;;;157.65;97.47;;;;;;;1.01;100.00;100888.50;10250917;29;20069;-74
2021/01/05 14:55:35;;;;;;;41.22;25.67;;;;;;;0.97;100.00;100886.78;10251134;29;20070;-74
2021/01/05 15:00:36;;;;;;;33.17;20.95;;;;;;;0.98;100.00;100900.63;10249074;29;20053;-73
2021/01/05 15:05:37;;;;;;;35.03;22.23;;;;;;;0.97;100.00;100904.94;10217381;28;20439;-73
2021/01/05 15:10:39;;;;;;;33.15;22.08;;;;;;;0.92;100.00;100926.56;10251121;29;20432;-76
2021/01/05 15:15:40;;;;;;;37.63;24.55;;;;;;;0.90;100.00;100936.06;10234182;29;20412;-74
2021/01/05 15:20:41;;;;;;;38.13;24.73;;;;;;;0.83;100.00;100929.16;10250195;29;20043;-75
2021/01/05 15:25:42;;;;;;;34.75;21.40;;;;;;;0.95;100.00;100971.50;10251786;29;20472;-74
2021/01/05 15:30:43;;;;;;;43.75;28.45;;;;;;;0.95;100.00;100970.63;10258455;28;20058;-74
2021/01/05 15:35:44;;;;;;;39.55;25.23;;;;;;;1.04;100.00;100987.09;10271605;28;20058;-75
2021/01/05 15:40:45;;;;;;;37.25;23.88;;;;;;;0.92;100.00;100971.50;10237514;28;20059;-74
2021/01/05 15:45:46;;;;;;;32.75;20.52;;;;;;;1.04;100.00;101002.66;10260954;29;20490;-75
2021/01/05 15:50:48;;;;;;;30.73;19.95;;;;;;;1.04;100.00;101001.78;10258742;29;20357;-76
2021/01/05 15:55:50;;;;;;;30.02;19.73;;;;;;;1.16;100.00;101016.50;10259933;29;20106;-76
2021/01/05 16:00:51;;;;;;;32.90;22.00;;;;;;;1.26;100.00;101019.06;10259715;29;20055;-75
2021/01/05 16:05:52;;;;;;;33.53;22.20;;;;;;;1.18;100.00;101019.94;10258870;29;20048;-75
2021/01/05 16:10:54;;;;;;;33.45;22.30;;;;;;;1.16;100.00;101022.56;10238542;29;20048;-75
2021/01/05 16:15:55;;;;;;;32.58;20.52;;;;;;;1.23;100.00;101029.47;10240307;28;20042;-75
2021/01/05 16:20:56;;;;;;;31.95;20.27;;;;;;;1.22;100.00;101030.34;10254768;28;20047;-75
2021/01/05 16:25:57;;;;;;;36.50;22.08;;;;;;;1.34;100.00;101045.91;10243968;28;20046;-76
2021/01/05 16:30:59;;;;;;;29.75;20.70;;;;;;;1.40;100.00;101048.50;10246806;28;20390;-74
2021/01/05 16:36:00;;;;;;;31.85;20.75;;;;;;;1.46;100.00;101064.09;10247293;28;20070;-74
2021/01/05 16:41:02;;;;;;;28.52;20.02;;;;;;;1.40;100.00;101050.25;10241120;29;20058;-75
2021/01/05 16:46:04;;;;;;;31.63;19.42;;;;;;;1.52;100.00;101055.41;10262665;28;20090;-74
2021/01/05 16:51:05;;;;;;;30.38;20.17;;;;;;;1.46;100.00;101050.22;10257670;28;20468;-74
2021/01/05 16:56:06;;;;;;;28.80;18.90;;;;;;;1.52;100.00;101053.69;10257832;29;20047;-74
2021/01/05 17:01:07;;;;;;;28.55;20.08;;;;;;;1.50;100.00;101045.06;10257588;29;20047;-74
2021/01/05 17:06:08;;;;;;;31.65;22.35;;;;;;;1.54;100.00;101045.91;10256788;29;20043;-75
2021/01/05 17:11:10;;;;;;;26.52;18.73;;;;;;;1.51;100.00;101036.38;10257161;29;20047;-75
2021/01/05 17:16:11;;;;;;;27.27;18.05;;;;;;;1.57;100.00;101042.44;10256566;29;20050;-69
2021/01/05 17:21:12;;;;;;;30.90;23.52;;;;;;;1.70;100.00;101046.75;10227858;29;20051;-73
2021/01/05 17:26:25;;;;;;;29.42;19.10;;;;;;;1.68;100.00;101040.69;10259500;28;20043;-74
2021/01/05 17:31:26;;;;;;;27.73;18.33;;;;;;;1.73;100.00;101045.03;10286873;28;20122;-74
2021/01/05 17:36:27;;;;;;;30.45;20.85;;;;;;;1.66;100.00;101042.44;10256318;29;20055;-73
2021/01/05 17:41:29;;;;;;;32.75;21.65;;;;;;;1.72;100.00;101045.03;10246688;29;20484;-73
2021/01/05 17:46:30;;;;;;;32.08;20.77;;;;;;;1.68;100.00;101033.75;10254846;29;20384;-73
2021/01/05 17:51:35;;;;;;;30.25;19.90;;;;;;;1.76;100.00;101047.59;10254740;29;20058;-74
2021/01/05 17:56:37;;;;;;;33.17;21.08;;;;;;;1.72;100.00;101039.84;10255471;29;20043;-73
2021/01/05 18:01:45;;;;;;;34.10;23.27;;;;;;;1.72;100.00;101045.91;10231845;28;20051;-75
2021/01/05 18:06:46;;;;;;;33.28;22.45;;;;;;;1.77;100.00;101045.88;10230448;28;20143;-75
2021/01/05 18:11:47;;;;;;;33.63;21.63;;;;;;;1.75;100.00;101038.13;10250933;28;20439;-77
2021/01/05 18:16:49;;;;;;;32.08;21.65;;;;;;;1.77;100.00;101041.53;10236551;29;20470;-74
2021/01/05 18:21:50;;;;;;;32.63;25.77;;;;;;;1.82;100.00;101047.63;10252222;29;20392;-75
2021/01/05 18:26:52;;;;;;;27.55;18.48;;;;;;;1.86;100.00;101044.13;10226052;29;20531;-74
2021/01/05 18:31:55;;;;;;;32.72;19.63;;;;;;;1.85;100.00;101041.53;10252171;28;20043;-75
2021/01/05 18:36:57;;;;;;;30.70;19.58;;;;;;;1.81;100.00;101029.44;10249929;29;20047;-75
2021/01/05 18:41:58;;;;;;;31.13;19.80;;;;;;;1.84;100.00;101032.03;10250469;28;20055;-73
2021/01/05 18:47:00;;;;;;;27.65;19.98;;;;;;;1.83;100.00;101031.16;10235005;29;20047;-74
2021/01/05 18:52:01;;;;;;;24.60;17.23;;;;;;;1.76;100.00;101018.16;10250521;29;20050;-72
2021/01/05 18:57:02;;;;;;;24.95;17.92;;;;;;;1.80;100.00;101031.16;10250963;29;20047;-74
2021/01/05 19:02:04;;;;;;;26.38;16.85;;;;;;;1.86;100.00;101035.47;10250783;29;20051;-75
2021/01/05 19:07:05;;;;;;;26.42;19.02;;;;;;;1.89;100.00;101019.88;10252094;29;20057;-74
2021/01/05 19:12:06;;;;;;;27.58;18.40;;;;;;;1.86;100.00;101019.88;10251589;29;20047;-75
2021/01/05 19:17:27;;;;;;;25.25;18.65;;;;;;;1.90;100.00;101030.28;10256637;28;20047;-75
2021/01/05 19:22:28;;;;;;;24.30;17.10;;;;;;;1.88;100.00;101016.44;10240869;28;20440;-73
2021/01/05 19:27:30;;;;;;;24.40;18.05;;;;;;;1.86;100.00;101018.16;10263340;28;20051;-74
2021/01/05 19:32:32;;;;;;;22.63;16.92;;;;;;;1.85;100.00;101016.41;10261187;28;20479;-73
2021/01/05 19:37:33;;;;;;;24.40;18.13;;;;;;;1.88;100.00;101018.16;10258727;28;20494;-74
2021/01/05 19:42:39;;;;;;;22.60;16.55;;;;;;;1.82;100.00;101016.44;10249853;29;20070;-75
2021/01/05 19:47:40;;;;;;;20.98;16.90;;;;;;;1.93;100.00;101021.59;10241801;29;20047;-74
2021/01/05 19:52:42;;;;;;;22.05;15.88;;;;;;;1.89;100.00;101006.91;10258388;29;20047;-74
2021/01/05 19:57:57;;;;;;;20.35;14.38;;;;;;;1.94;100.00;101004.28;10233994;29;20049;-74
2021/01/05 20:03:01;;;;;;;22.27;16.17;;;;;;;1.88;100.00;100992.19;10254569;28;20055;-74
2021/01/05 20:08:03;;;;;;;19.80;15.23;;;;;;;1.96;100.00;101008.59;10257887;28;20047;-75
2021/01/05 20:13:06;;;;;;;19.05;14.73;;;;;;;1.96;100.00;100998.22;10258516;28;20376;-75
2021/01/05 20:18:07;;;;;;;18.50;13.30;;;;;;;1.97;100.00;100991.28;10256344;28;20055;-74
2021/01/05 20:23:11;;;;;;;20.05;14.27;;;;;;;1.97;100.00;100991.28;10227326;28;20047;-73
2021/01/05 20:28:20;;;;;;;17.30;14.67;;;;;;;1.90;100.00;100978.31;10279225;28;20090;-73
2021/01/05 20:33:24;;;;;;;19.15;16.15;;;;;;;1.90;100.00;100975.72;10257705;28;20059;-74
2021/01/05 20:38:26;;;;;;;22.42;16.90;;;;;;;1.91;100.00;100976.59;10260656;28;20050;-74
2021/01/05 20:43:27;;;;;;;22.63;17.15;;;;;;;1.87;100.00;100978.31;10251138;28;20047;-73
2021/01/05 20:48:28;;;;;;;26.48;18.60;;;;;;;1.93;100.00;100974.84;10257937;29;20043;-74
2021/01/05 20:53:29;;;;;;;27.50;18.20;;;;;;;1.92;100.00;100977.47;10257201;29;20248;-73
2021/01/05 20:58:30;;;;;;;20.95;15.18;;;;;;;1.82;100.00;100969.69;10251219;29;20047;-73
2021/01/05 21:03:31;;;;;;;19.20;13.50;;;;;;;1.92;100.00;100974.88;10251176;29;20050;-73
2021/01/05 21:08:33;;;;;;;23.05;15.80;;;;;;;1.90;100.00;100977.47;10255000;29;20043;-73
2021/01/05 21:13:35;;;;;;;19.88;14.63;;;;;;;1.82;100.00;100969.69;10266829;28;20101;-73
2021/01/05 21:18:37;;;;;;;20.48;14.50;;;;;;;1.87;100.00;100973.13;10270568;28;20055;-73
2021/01/05 21:23:38;;;;;;;19.13;13.55;;;;;;;1.82;100.00;100964.50;10255748;29;20047;-73
2021/01/05 21:28:41;;;;;;;19.85;14.20;;;;;;;1.85;100.00;100974.84;10255967;28;20046;-73
2021/01/05 21:33:42;;;;;;;18.55;13.30;;;;;;;1.84;100.00;100974.88;10254247;29;20075;-73
2021/01/05 21:38:44;;;;;;;18.77;14.63;;;;;;;1.84;100.00;100965.34;10253731;28;20468;-73
2021/01/05 21:43:45;;;;;;;19.27;13.82;;;;;;;1.80;100.00;100958.44;10253266;29;20434;-73
2021/01/05 21:48:46;;;;;;;20.15;14.13;;;;;;;1.84;100.00;100961.91;10255495;29;20043;-73
2021/01/05 21:53:47;;;;;;;21.33;13.98;;;;;;;1.82;100.00;100959.31;10253836;29;20047;-73
2021/01/05 21:58:48;;;;;;;17.83;13.60;;;;;;;1.84;100.00;100959.31;10254813;29;20047;-73
2021/01/05 22:03:49;;;;;;;18.23;13.25;;;;;;;1.86;100.00;100962.75;10254579;29;20054;-73
2021/01/05 22:08:51;;;;;;;18.90;13.60;;;;;;;1.81;100.00;100942.00;10253134;28;20098;-73
2021/01/05 22:13:53;;;;;;;19.80;14.55;;;;;;;1.89;100.00;100960.13;10237064;28;20114;-73
2021/01/05 22:18:55;;;;;;;20.83;17.00;;;;;;;1.89;100.00;100960.13;10237356;29;20106;-73
2021/01/05 22:23:56;;;;;;;19.25;13.82;;;;;;;1.89;100.00;100950.63;10254394;29;20047;-73
2021/01/05 22:28:58;;;;;;;22.95;15.27;;;;;;;1.95;100.00;100961.84;10270370;28;20118;-73
2021/01/05 22:33:59;;;;;;;21.45;15.20;;;;;;;1.92;100.00;100955.78;10293129;28;20059;-73
2021/01/05 22:39:01;;;;;;;21.48;15.43;;;;;;;1.91;100.00;100958.41;10252005;29;20094;-73
2021/01/05 22:44:02;;;;;;;19.08;13.18;;;;;;;2.00;100.00;100963.56;10253376;29;20066;-73
2021/01/05 22:49:03;;;;;;;20.80;14.80;;;;;;;2.02;100.00;100969.59;10251424;28;20400;-73